Plaza, Washington
Current Conditions -  °F | °C
As of 2:53 AM on Friday 24 Oct 2014 (Local Time) from KGEG Reporting Station
Overcast Overcast  
Wind Chill: 40°   Ceiling: 22000
Heat Index: 44°   Visibility: 10mi
Dew Point: 39°   Wind: 7mph
Humidity: 82%   Direction: 190°S
Pressure: 30.03"   Gusts: NA
Location:  47.2196°N, 117.453°W
Report Text: KGEG 240953Z 19006KT 10SM FEW005 OVC220 07/04 A3003 RMK AO2 SLP173 T00670039
Loading
Personal Weather Stations






























Interactive Weather Map
Tropical Storm Tracking
New forecast layout! Learn more

10-Day Weather Forecast

Advertisements
Track Severe Weather on mobile